createdAt,value
2022-08-03T00:02:15.593Z,17.07
2022-08-03T00:04:42.723Z,16.82
2022-08-03T00:07:09.737Z,16.64
2022-08-03T00:09:36.912Z,16.55
2022-08-03T00:12:04.526Z,16.56
2022-08-03T00:14:31.783Z,16.79
2022-08-03T00:16:58.963Z,16.96
2022-08-03T00:19:26.115Z,16.95
2022-08-03T00:21:53.174Z,16.95
2022-08-03T00:24:20.579Z,16.76
2022-08-03T00:26:47.580Z,16.58
2022-08-03T00:29:14.666Z,16.95
2022-08-03T00:31:51.493Z,17.11
2022-08-03T00:34:24.261Z,17.06
2022-08-03T00:37:03.803Z,16.93
2022-08-03T00:39:30.881Z,16.60
2022-08-03T00:41:57.925Z,16.33
2022-08-03T00:44:24.929Z,16.24
2022-08-03T00:46:51.912Z,16.43
2022-08-03T00:49:18.985Z,16.59
2022-08-03T00:51:47.384Z,16.69
2022-08-03T00:54:16.881Z,16.73
2022-08-03T00:57:00.278Z,16.66
2022-08-03T00:59:28.032Z,16.39
2022-08-03T01:01:55.152Z,16.26
2022-08-03T01:04:22.204Z,16.09
2022-08-03T01:07:03.877Z,15.94
2022-08-03T01:09:54.106Z,15.91
2022-08-03T01:13:04.786Z,16.07
2022-08-03T01:15:49.109Z,16.24
2022-08-03T01:18:35.098Z,16.33
2022-08-03T01:21:10.569Z,16.15
2022-08-03T01:24:31.949Z,16.00
2022-08-03T01:27:31.756Z,16.54
2022-08-03T01:30:09.561Z,16.83
2022-08-03T01:33:00.679Z,16.87
2022-08-03T01:35:43.597Z,16.91
2022-08-03T01:38:18.638Z,16.90
2022-08-03T01:40:47.132Z,16.98
2022-08-03T01:43:55.232Z,17.10
2022-08-03T01:46:06.933Z,17.00
2022-08-03T01:48:36.801Z,17.00
2022-08-03T01:51:04.840Z,16.58
2022-08-03T01:53:35.194Z,15.91
2022-08-03T01:56:04.046Z,15.54
2022-08-03T01:58:34.341Z,15.48
2022-08-03T02:01:04.044Z,15.79
2022-08-03T02:03:34.473Z,15.80
2022-08-03T02:07:00.438Z,15.63
2022-08-03T02:08:52.755Z,15.56
2022-08-03T02:11:20.173Z,15.45
2022-08-03T02:13:49.803Z,15.37
2022-08-03T02:16:18.337Z,15.31
2022-08-03T02:18:47.510Z,15.82
2022-08-03T02:21:55.910Z,16.00
2022-08-03T02:24:05.025Z,16.03
2022-08-03T02:26:35.028Z,16.14
2022-08-03T02:29:14.769Z,16.24
2022-08-03T02:31:43.874Z,16.48
2022-08-03T02:34:14.875Z,16.46
2022-08-03T02:36:46.101Z,16.44
2022-08-03T02:39:20.994Z,16.40
2022-08-03T02:42:02.266Z,16.24
2022-08-03T02:44:33.276Z,16.14
2022-08-03T02:47:10.156Z,15.95
2022-08-03T02:49:50.452Z,15.67
2022-08-03T02:52:21.313Z,15.41
2022-08-03T02:54:52.840Z,15.14
2022-08-03T02:57:21.882Z,15.07
2022-08-03T02:59:51.807Z,15.01
2022-08-03T03:02:20.106Z,14.96
2022-08-03T03:05:56.364Z,15.04
2022-08-03T03:07:52.232Z,15.35
2022-08-03T03:10:24.057Z,15.50
2022-08-03T03:12:55.658Z,15.58
2022-08-03T03:15:24.839Z,15.66
2022-08-03T03:17:53.664Z,15.72
2022-08-03T03:20:29.987Z,15.80
2022-08-03T03:23:00.829Z,15.59
2022-08-03T03:25:32.864Z,15.11
2022-08-03T03:28:02.080Z,15.04
2022-08-03T03:30:30.212Z,15.04
2022-08-03T03:32:58.933Z,15.16
2022-08-03T03:35:27.937Z,15.17
2022-08-03T03:37:55.236Z,15.32
2022-08-03T03:40:23.000Z,15.43
2022-08-03T03:42:51.114Z,15.58
2022-08-03T03:45:18.938Z,15.47
2022-08-03T03:47:47.381Z,15.15
2022-08-03T03:50:18.348Z,15.07
2022-08-03T03:52:46.429Z,15.41
2022-08-03T03:55:17.855Z,15.62
2022-08-03T03:57:46.131Z,15.71
2022-08-03T04:00:15.532Z,15.72
2022-08-03T04:02:42.668Z,15.60
2022-08-03T04:05:28.651Z,15.47
2022-08-03T04:08:20.718Z,15.41
2022-08-03T04:11:01.788Z,15.40
2022-08-03T04:13:37.865Z,15.32
2022-08-03T04:16:08.029Z,15.17
2022-08-03T04:18:37.231Z,14.76
2022-08-03T04:21:10.260Z,14.68
2022-08-03T04:23:41.954Z,14.67
2022-08-03T04:26:13.903Z,14.70
2022-08-03T04:28:46.062Z,14.63
2022-08-03T04:31:15.050Z,14.62
2022-08-03T04:33:44.865Z,14.62
2022-08-03T04:36:17.263Z,14.67
2022-08-03T04:39:07.446Z,14.73
2022-08-03T04:42:04.384Z,14.89
2022-08-03T04:44:28.389Z,14.95
2022-08-03T04:46:57.176Z,15.05
2022-08-03T04:49:25.378Z,15.13
2022-08-03T04:51:53.260Z,15.29
2022-08-03T04:54:20.270Z,15.62
2022-08-03T04:56:47.913Z,15.84
2022-08-03T04:59:14.995Z,16.02
2022-08-03T05:01:42.310Z,16.18
2022-08-03T05:04:09.986Z,16.39
2022-08-03T05:06:37.130Z,16.62
2022-08-03T05:09:14.951Z,16.85
2022-08-03T05:12:01.946Z,17.23
2022-08-03T05:14:28.888Z,17.62
2022-08-03T05:16:55.842Z,18.20
2022-08-03T05:19:22.846Z,18.84
2022-08-03T05:21:52.354Z,19.37
2022-08-03T05:24:19.762Z,20.49
2022-08-03T05:26:49.325Z,21.81
2022-08-03T05:29:16.308Z,22.68
2022-08-03T05:31:43.723Z,24.10
2022-08-03T05:34:10.754Z,25.37
2022-08-03T05:36:37.800Z,26.13
2022-08-03T05:39:04.810Z,25.56
2022-08-03T05:41:36.848Z,25.98
2022-08-03T05:44:04.977Z,25.91
2022-08-03T05:46:32.164Z,25.62
2022-08-03T05:48:59.389Z,26.01
2022-08-03T05:51:26.544Z,25.80
2022-08-03T05:53:53.487Z,25.91
2022-08-03T05:56:26.301Z,26.20
2022-08-03T05:58:53.626Z,26.50
2022-08-03T06:01:22.003Z,26.70
2022-08-03T06:03:50.188Z,26.68
2022-08-03T06:06:17.642Z,27.30
2022-08-03T06:08:45.774Z,28.61
2022-08-03T06:11:13.092Z,28.61
2022-08-03T06:13:40.415Z,27.71
2022-08-03T06:16:07.467Z,28.13
2022-08-03T06:18:35.306Z,27.92
2022-08-03T06:21:14.378Z,28.01
2022-08-03T06:23:55.227Z,28.46
2022-08-03T06:26:25.055Z,28.21
2022-08-03T06:28:54.246Z,28.41
2022-08-03T06:31:32.976Z,29.11
2022-08-03T06:34:35.135Z,29.57
2022-08-03T06:36:52.186Z,30.48
2022-08-03T06:39:20.352Z,30.13
2022-08-03T06:41:47.423Z,29.96
2022-08-03T06:44:14.505Z,30.46
2022-08-03T06:46:42.321Z,31.76
2022-08-03T06:49:09.420Z,30.83
2022-08-03T06:52:03.660Z,30.77
2022-08-03T06:54:24.413Z,32.70
2022-08-03T06:56:51.603Z,33.09
2022-08-03T07:00:10.939Z,33.71
2022-08-03T07:02:06.110Z,32.09
2022-08-03T07:04:33.383Z,31.75
2022-08-03T07:07:00.391Z,31.72
2022-08-03T07:09:28.089Z,32.34
2022-08-03T07:11:55.451Z,31.56
2022-08-03T07:14:22.786Z,31.77
2022-08-03T07:16:49.763Z,32.25
2022-08-03T07:19:17.268Z,32.29
2022-08-03T07:21:45.417Z,32.32
2022-08-03T07:24:12.472Z,32.99
2022-08-03T07:26:39.463Z,32.98
2022-08-03T07:29:08.736Z,33.31
2022-08-03T07:31:42.948Z,33.45
2022-08-03T07:34:10.010Z,35.45
2022-08-03T07:36:37.315Z,36.64
2022-08-03T07:39:16.667Z,36.22
2022-08-03T07:41:45.899Z,36.58
2022-08-03T07:44:13.567Z,36.86
2022-08-03T07:46:40.650Z,36.53
2022-08-03T07:49:07.709Z,36.15
2022-08-03T07:51:35.052Z,35.54
2022-08-03T07:54:02.156Z,35.57
2022-08-03T07:56:29.798Z,35.56
2022-08-03T07:58:57.621Z,36.73
2022-08-03T08:01:24.809Z,36.95
2022-08-03T08:03:53.441Z,36.84
2022-08-03T08:06:21.906Z,37.53
2022-08-03T08:08:49.314Z,35.79
2022-08-03T08:11:16.389Z,34.90
2022-08-03T08:13:43.316Z,31.96
2022-08-03T08:16:10.317Z,32.40
2022-08-03T08:18:37.268Z,34.16
2022-08-03T08:21:04.471Z,35.51
2022-08-03T08:23:41.899Z,34.67
2022-08-03T08:26:10.740Z,33.04
2022-08-03T08:28:37.862Z,34.59
2022-08-03T08:31:04.963Z,32.34
2022-08-03T08:34:01.480Z,33.33
2022-08-03T08:36:21.704Z,32.95
2022-08-03T08:38:48.802Z,33.40
2022-08-03T08:41:16.466Z,33.24
2022-08-03T08:43:44.058Z,32.74
2022-08-03T08:46:23.629Z,31.63
2022-08-03T08:48:53.164Z,32.96
2022-08-03T08:51:22.428Z,33.73
2022-08-03T08:53:53.884Z,33.28
2022-08-03T08:56:25.386Z,34.06
2022-08-03T08:58:59.687Z,35.25
2022-08-03T09:01:27.646Z,34.98
2022-08-03T09:03:55.575Z,36.67
2022-08-03T09:06:23.851Z,33.11
2022-08-03T09:08:51.329Z,34.39
2022-08-03T09:11:51.413Z,33.99
2022-08-03T09:14:11.160Z,34.37
2022-08-03T09:17:00.942Z,36.84
2022-08-03T09:19:30.187Z,37.90
2022-08-03T09:22:18.705Z,38.11
2022-08-03T09:25:22.003Z,34.17
2022-08-03T09:27:48.089Z,36.67
2022-08-03T09:30:33.460Z,36.71
2022-08-03T09:33:08.612Z,38.38
2022-08-03T09:35:55.365Z,35.01
2022-08-03T09:38:28.881Z,33.88
2022-08-03T09:41:00.238Z,35.42
2022-08-03T09:43:28.866Z,35.12
2022-08-03T09:46:07.631Z,37.62
2022-08-03T09:48:36.761Z,37.80
2022-08-03T09:51:13.593Z,37.79
2022-08-03T09:53:58.510Z,38.38
2022-08-03T09:56:47.507Z,39.78
2022-08-03T09:59:24.654Z,39.52
2022-08-03T10:01:54.308Z,37.02
2022-08-03T10:04:22.882Z,38.20
2022-08-03T10:07:09.291Z,38.65
2022-08-03T10:09:37.629Z,34.96
2022-08-03T10:12:13.814Z,35.44
2022-08-03T10:14:43.909Z,38.42
2022-08-03T10:17:11.325Z,40.15
2022-08-03T10:19:38.624Z,37.85
2022-08-03T10:22:14.456Z,36.94
2022-08-03T10:24:54.346Z,37.17
2022-08-03T10:27:24.140Z,35.84
2022-08-03T10:29:54.492Z,34.98
2022-08-03T10:32:29.070Z,38.59
2022-08-03T10:35:19.651Z,40.65
2022-08-03T10:38:01.992Z,41.79
2022-08-03T10:43:37.224Z,36.39
2022-08-03T10:46:07.330Z,39.13
2022-08-03T10:48:35.869Z,39.35
2022-08-03T10:51:03.458Z,40.92
2022-08-03T10:53:44.130Z,42.78
2022-08-03T10:56:52.267Z,44.26
2022-08-03T10:59:38.612Z,45.25
2022-08-03T11:02:08.342Z,46.18
2022-08-03T11:04:35.697Z,46.54
2022-08-03T11:07:18.479Z,45.39
2022-08-03T11:09:48.665Z,45.01
2022-08-03T11:12:30.661Z,45.40
2022-08-03T11:15:01.958Z,47.07
2022-08-03T11:17:29.647Z,45.77
2022-08-03T11:19:58.474Z,42.88
2022-08-03T11:22:29.018Z,38.49
2022-08-03T11:24:57.582Z,37.21
2022-08-03T11:27:32.934Z,38.54
2022-08-03T11:30:08.687Z,37.46
2022-08-03T11:32:38.589Z,38.24
2022-08-03T11:35:13.579Z,40.05
2022-08-03T11:38:02.018Z,38.77
2022-08-03T11:40:52.828Z,39.13
2022-08-03T11:43:23.666Z,40.83
2022-08-03T11:46:12.498Z,42.76
2022-08-03T11:48:45.322Z,40.75
2022-08-03T11:51:26.579Z,41.93
2022-08-03T11:53:55.679Z,43.36
2022-08-03T11:56:22.841Z,41.35
2022-08-03T11:59:16.469Z,39.14
2022-08-03T12:01:41.773Z,39.19
2022-08-03T12:04:10.359Z,39.70
2022-08-03T12:06:55.909Z,42.05
2022-08-03T12:09:23.300Z,43.18
2022-08-03T12:12:00.335Z,44.41
2022-08-03T12:14:50.240Z,42.64
2022-08-03T12:17:18.040Z,42.53
2022-08-03T12:19:45.911Z,40.26
2022-08-03T12:22:13.660Z,39.36
2022-08-03T12:24:46.758Z,41.38
2022-08-03T12:27:29.245Z,43.12
2022-08-03T12:29:59.298Z,43.59
2022-08-03T12:32:28.562Z,42.84
2022-08-03T12:35:00.705Z,44.15
2022-08-03T12:37:28.846Z,42.93
2022-08-03T12:40:09.501Z,43.70
2022-08-03T12:42:39.721Z,43.01
2022-08-03T12:45:20.879Z,43.88
2022-08-03T12:48:00.069Z,42.45
2022-08-03T12:50:33.333Z,43.85
2022-08-03T12:53:02.575Z,44.76
2022-08-03T12:55:56.377Z,45.01
2022-08-03T12:58:34.002Z,44.71
2022-08-03T13:01:09.818Z,44.46
2022-08-03T13:03:50.408Z,42.93
2022-08-03T13:06:28.603Z,42.10
2022-08-03T13:09:07.103Z,39.09
2022-08-03T13:11:52.631Z,39.09
2022-08-03T13:14:23.804Z,34.88
2022-08-03T13:16:50.967Z,34.84
2022-08-03T13:19:17.978Z,34.94
2022-08-03T13:21:53.863Z,35.87
2022-08-03T13:24:32.720Z,36.38
2022-08-03T13:27:58.889Z,36.34
2022-08-03T13:29:48.085Z,36.58
2022-08-03T13:32:15.079Z,36.57
2022-08-03T13:34:42.213Z,36.65
2022-08-03T13:37:20.032Z,36.56
2022-08-03T13:39:58.433Z,35.49
2022-08-03T13:42:32.806Z,35.81
2022-08-03T13:45:01.441Z,35.77
2022-08-03T13:47:28.822Z,35.87
2022-08-03T13:50:01.089Z,35.83
2022-08-03T13:52:36.418Z,35.81
2022-08-03T13:55:06.512Z,35.85
2022-08-03T13:58:06.729Z,35.93
2022-08-03T14:00:28.937Z,35.72
2022-08-03T14:03:12.520Z,35.73
2022-08-03T14:05:41.593Z,35.63
2022-08-03T14:08:09.081Z,35.58
2022-08-03T14:10:42.317Z,35.64
2022-08-03T14:13:12.408Z,35.52
2022-08-03T14:15:39.458Z,35.28
2022-08-03T14:18:15.315Z,35.20
2022-08-03T14:20:50.048Z,34.88
2022-08-03T14:23:19.078Z,33.55
2022-08-03T14:25:51.672Z,33.32
2022-08-03T14:28:21.069Z,32.86
2022-08-03T14:30:48.722Z,33.42
2022-08-03T14:33:16.599Z,33.57
2022-08-03T14:35:44.124Z,33.84
2022-08-03T14:38:11.546Z,33.74
2022-08-03T14:40:38.917Z,33.96
2022-08-03T14:43:06.407Z,33.97
2022-08-03T14:45:34.306Z,34.06
2022-08-03T14:50:28.837Z,34.07
2022-08-03T14:50:51.732Z,33.13
2022-08-03T14:53:19.990Z,33.06
2022-08-03T14:55:50.917Z,33.10
2022-08-03T14:58:20.972Z,33.02
2022-08-03T15:00:49.965Z,33.28
2022-08-03T15:03:20.518Z,33.31
2022-08-03T15:05:48.278Z,33.18
2022-08-03T15:08:15.865Z,33.32
2022-08-03T15:10:44.117Z,33.55
2022-08-03T15:13:13.382Z,33.50
2022-08-03T15:15:41.261Z,33.09
2022-08-03T15:18:08.874Z,33.11
2022-08-03T15:20:45.315Z,33.18
2022-08-03T15:23:14.591Z,33.38
2022-08-03T15:26:28.329Z,33.31
2022-08-03T15:28:30.670Z,33.11
2022-08-03T15:30:58.144Z,33.22
2022-08-03T15:33:25.569Z,33.33
2022-08-03T15:35:53.637Z,33.55
2022-08-03T15:38:26.220Z,33.67
2022-08-03T15:40:54.701Z,33.29
2022-08-03T15:43:23.958Z,33.37
2022-08-03T15:46:12.730Z,33.45
2022-08-03T15:48:39.417Z,33.14
2022-08-03T15:51:07.590Z,33.19
2022-08-03T15:53:35.185Z,33.28
2022-08-03T15:56:08.017Z,33.12
2022-08-03T15:59:10.431Z,33.01
2022-08-03T16:01:27.537Z,33.20
2022-08-03T16:03:55.025Z,33.28
2022-08-03T16:06:34.918Z,33.28
2022-08-03T16:09:05.832Z,33.19
2022-08-03T16:11:51.841Z,33.17
2022-08-03T16:14:32.110Z,33.33
2022-08-03T16:17:00.866Z,33.39
2022-08-03T16:19:28.934Z,33.11
2022-08-03T16:21:56.397Z,32.79
2022-08-03T16:24:28.037Z,32.80
2022-08-03T16:26:56.385Z,32.93
2022-08-03T16:29:24.149Z,32.75
2022-08-03T16:31:52.566Z,32.99
2022-08-03T16:34:21.007Z,32.94
2022-08-03T16:36:48.465Z,32.95
2022-08-03T16:39:16.034Z,32.77
2022-08-03T16:41:53.557Z,32.83
2022-08-03T16:44:29.990Z,32.88
2022-08-03T16:46:58.115Z,32.86
2022-08-03T16:49:53.638Z,32.65
2022-08-03T16:52:13.292Z,32.64
2022-08-03T16:54:40.931Z,32.82
2022-08-03T16:57:12.470Z,32.76
2022-08-03T16:59:39.977Z,32.62
2022-08-03T17:02:10.535Z,32.64
2022-08-03T17:04:40.203Z,32.62
2022-08-03T17:07:08.928Z,32.61
2022-08-03T17:09:38.801Z,32.44
2022-08-03T17:12:07.654Z,32.46
2022-08-03T17:14:38.900Z,32.43
2022-08-03T17:17:16.137Z,32.43
2022-08-03T17:19:47.145Z,32.39
2022-08-03T17:22:20.771Z,32.36
2022-08-03T17:24:53.785Z,32.35
2022-08-03T17:28:43.098Z,32.35
2022-08-03T17:30:16.749Z,32.39
2022-08-03T17:32:52.489Z,32.35
2022-08-03T17:35:34.631Z,32.32
2022-08-03T17:38:10.429Z,32.27
2022-08-03T17:40:50.314Z,32.20
2022-08-03T17:44:15.686Z,32.20
2022-08-03T17:46:10.943Z,32.16
2022-08-03T17:48:41.327Z,32.12
2022-08-03T17:51:20.403Z,32.04
2022-08-03T17:54:01.286Z,31.97
2022-08-03T17:56:46.618Z,31.94
2022-08-03T18:02:55.238Z,31.82
2022-08-03T18:05:25.385Z,31.81
2022-08-03T18:08:32.925Z,31.64
2022-08-03T18:11:09.759Z,31.56
2022-08-03T18:13:57.641Z,31.51
2022-08-03T18:16:37.689Z,31.45
2022-08-03T18:19:09.384Z,31.39
2022-08-03T18:22:02.545Z,31.28
2022-08-03T18:24:30.321Z,31.24
2022-08-03T18:26:57.955Z,31.05
2022-08-03T18:29:26.549Z,30.91
2022-08-03T18:32:03.071Z,30.80
2022-08-03T18:34:34.273Z,30.58
2022-08-03T18:37:04.394Z,30.47
2022-08-03T18:39:49.346Z,30.43
2022-08-03T18:42:25.832Z,30.25
2022-08-03T18:44:56.459Z,30.08
2022-08-03T18:47:50.531Z,29.88
2022-08-03T18:50:37.097Z,29.52
2022-08-03T18:53:19.597Z,29.31
2022-08-03T18:56:08.236Z,29.21
2022-08-03T18:59:02.468Z,29.09
2022-08-03T19:01:59.781Z,28.83
2022-08-03T19:04:37.255Z,28.43
2022-08-03T19:07:11.087Z,28.37
2022-08-03T19:09:47.672Z,28.00
2022-08-03T19:12:32.331Z,27.90
2022-08-03T19:15:13.369Z,27.66
2022-08-03T19:17:52.661Z,27.45
2022-08-03T19:20:30.688Z,27.26
2022-08-03T19:22:59.870Z,27.21
2022-08-03T19:25:34.349Z,26.99
2022-08-03T19:28:06.270Z,26.99
2022-08-03T19:30:40.147Z,26.93
2022-08-03T19:33:11.103Z,26.94
2022-08-03T19:35:51.538Z,26.80
2022-08-03T19:38:28.203Z,26.65
2022-08-03T19:41:02.376Z,26.50
2022-08-03T19:43:53.275Z,26.40
2022-08-03T19:46:22.682Z,26.23
2022-08-03T19:49:14.469Z,26.09
2022-08-03T19:51:59.428Z,25.90
2022-08-03T19:54:54.049Z,25.66
2022-08-03T19:57:25.485Z,25.67
2022-08-03T19:59:56.104Z,25.56
2022-08-03T20:02:27.380Z,25.36
2022-08-03T20:04:59.787Z,24.97
2022-08-03T20:07:30.826Z,24.89
2022-08-03T20:09:59.569Z,24.91
2022-08-03T20:12:33.158Z,24.64
2022-08-03T20:15:04.654Z,24.42
2022-08-03T20:17:56.592Z,24.45
2022-08-03T20:20:34.671Z,24.25
2022-08-03T20:23:13.976Z,24.26
2022-08-03T20:25:58.241Z,24.29
2022-08-03T20:28:57.115Z,24.38
2022-08-03T20:31:32.510Z,24.35
2022-08-03T20:34:04.629Z,24.27
2022-08-03T20:36:31.623Z,24.20
2022-08-03T20:38:59.690Z,24.19
2022-08-03T20:41:26.800Z,24.09
2022-08-03T20:43:53.992Z,24.05
2022-08-03T20:46:31.840Z,23.84
2022-08-03T20:49:09.015Z,23.61
2022-08-03T20:51:52.860Z,23.47
2022-08-03T20:54:29.526Z,23.53
2022-08-03T20:57:03.795Z,23.44
2022-08-03T20:59:50.179Z,23.38
2022-08-03T21:02:29.705Z,23.31
2022-08-03T21:05:03.726Z,23.35
2022-08-03T21:08:04.238Z,23.31
2022-08-03T21:10:31.155Z,23.23
2022-08-03T21:13:04.599Z,31.81
2022-08-03T21:13:25.847Z,22.98
2022-08-03T21:16:06.983Z,22.97
2022-08-03T21:18:50.299Z,22.91
2022-08-03T21:21:21.429Z,22.97
2022-08-03T21:23:55.874Z,22.88
2022-08-03T21:26:25.626Z,23.02
2022-08-03T21:28:56.371Z,22.96
2022-08-03T21:31:26.487Z,22.93
2022-08-03T21:34:00.907Z,22.89
2022-08-03T21:36:31.466Z,22.70
2022-08-03T21:38:59.533Z,22.49
2022-08-03T21:41:31.857Z,22.35
2022-08-03T21:44:00.586Z,22.14
2022-08-03T21:46:35.159Z,21.90
2022-08-03T21:49:52.149Z,21.83
2022-08-03T21:51:59.556Z,21.98
2022-08-03T21:54:38.697Z,21.98
2022-08-03T21:57:14.273Z,22.02
2022-08-03T21:59:52.292Z,22.07
2022-08-03T22:02:24.545Z,22.10
2022-08-03T22:04:55.365Z,21.94
2022-08-03T22:07:26.161Z,21.89
2022-08-03T22:09:58.450Z,21.71
2022-08-03T22:12:28.674Z,21.49
2022-08-03T22:15:00.957Z,21.48
2022-08-03T22:17:56.334Z,21.28
2022-08-03T22:20:22.431Z,21.21
2022-08-03T22:22:56.103Z,21.31
2022-08-03T22:25:31.484Z,21.50
2022-08-03T22:28:05.089Z,21.41
2022-08-03T22:30:33.136Z,21.47
2022-08-03T22:33:04.785Z,21.46
2022-08-03T22:35:46.436Z,21.51
2022-08-03T22:38:17.676Z,21.38
2022-08-03T22:40:48.714Z,21.22
2022-08-03T22:43:16.428Z,20.78
2022-08-03T22:46:11.222Z,20.68
2022-08-03T22:48:35.425Z,20.63
2022-08-03T22:51:08.871Z,20.46
2022-08-03T22:53:36.571Z,20.68
2022-08-03T22:56:04.197Z,20.54
2022-08-03T22:58:31.232Z,20.45
2022-08-03T23:01:06.462Z,20.50
2022-08-03T23:03:59.831Z,20.52
2022-08-03T23:06:26.656Z,20.37
2022-08-03T23:08:54.225Z,20.40
2022-08-03T23:11:23.975Z,20.33
2022-08-03T23:13:54.422Z,20.33
2022-08-03T23:16:28.998Z,20.47
2022-08-03T23:18:59.633Z,20.19
2022-08-03T23:21:52.872Z,20.06
2022-08-03T23:24:26.134Z,20.34
2022-08-03T23:26:58.080Z,20.39
2022-08-03T23:29:26.312Z,20.25
2022-08-03T23:31:54.914Z,20.31
2022-08-03T23:34:42.414Z,20.39
2022-08-03T23:37:11.521Z,20.36
2022-08-03T23:39:40.232Z,20.27
2022-08-03T23:42:07.512Z,20.29
2022-08-03T23:44:37.507Z,20.17
2022-08-03T23:47:04.582Z,19.91
2022-08-03T23:49:31.592Z,19.92
2022-08-03T23:52:34.731Z,19.69
2022-08-03T23:55:24.010Z,19.63
2022-08-03T23:58:18.935Z,19.51
